sensor_id;sensor_type;location;lat;lon;timestamp;P1;durP1;ratioP1;P2;durP2;ratioP2
34064;SDS011;20339;49.754;20.158;2022-10-19T00:01:40;0.30;;;0.30;;
34064;SDS011;20339;49.754;20.158;2022-10-19T00:04:11;0.70;;;0.70;;
34064;SDS011;20339;49.754;20.158;2022-10-19T00:06:42;1.70;;;0.50;;
34064;SDS011;20339;49.754;20.158;2022-10-19T00:09:15;0.70;;;0.60;;
34064;SDS011;20339;49.754;20.158;2022-10-19T00:11:49;1.20;;;0.60;;
34064;SDS011;20339;49.754;20.158;2022-10-19T00:14:25;0.60;;;0.50;;
34064;SDS011;20339;49.754;20.158;2022-10-19T00:16:57;1.00;;;0.60;;
34064;SDS011;20339;49.754;20.158;2022-10-19T00:19:30;1.00;;;0.50;;
34064;SDS011;20339;49.754;20.158;2022-10-19T00:22:01;0.50;;;0.40;;
34064;SDS011;20339;49.754;20.158;2022-10-19T00:24:32;1.10;;;0.60;;
34064;SDS011;20339;49.754;20.158;2022-10-19T00:27:03;1.10;;;0.60;;
34064;SDS011;20339;49.754;20.158;2022-10-19T00:29:34;1.00;;;0.90;;
34064;SDS011;20339;49.754;20.158;2022-10-19T00:32:06;0.80;;;0.70;;
34064;SDS011;20339;49.754;20.158;2022-10-19T00:34:37;1.80;;;0.80;;
34064;SDS011;20339;49.754;20.158;2022-10-19T00:37:08;2.10;;;1.40;;
34064;SDS011;20339;49.754;20.158;2022-10-19T00:39:39;1.00;;;0.70;;
34064;SDS011;20339;49.754;20.158;2022-10-19T00:42:11;1.50;;;1.20;;
34064;SDS011;20339;49.754;20.158;2022-10-19T00:45:02;1.30;;;1.20;;
34064;SDS011;20339;49.754;20.158;2022-10-19T00:47:39;2.00;;;1.60;;
34064;SDS011;20339;49.754;20.158;2022-10-19T00:50:12;2.60;;;1.80;;
34064;SDS011;20339;49.754;20.158;2022-10-19T00:52:44;1.30;;;1.20;;
34064;SDS011;20339;49.754;20.158;2022-10-19T00:55:15;1.00;;;0.90;;
34064;SDS011;20339;49.754;20.158;2022-10-19T00:57:47;2.60;;;1.20;;
34064;SDS011;20339;49.754;20.158;2022-10-19T01:00:18;2.90;;;1.40;;
34064;SDS011;20339;49.754;20.158;2022-10-19T01:02:50;2.40;;;1.30;;
34064;SDS011;20339;49.754;20.158;2022-10-19T01:05:21;1.90;;;1.60;;
34064;SDS011;20339;49.754;20.158;2022-10-19T01:07:53;2.30;;;1.70;;
34064;SDS011;20339;49.754;20.158;2022-10-19T01:10:27;3.20;;;1.70;;
34064;SDS011;20339;49.754;20.158;2022-10-19T01:13:09;2.00;;;1.80;;
34064;SDS011;20339;49.754;20.158;2022-10-19T01:15:52;3.60;;;1.90;;
34064;SDS011;20339;49.754;20.158;2022-10-19T01:18:32;2.10;;;1.90;;
34064;SDS011;20339;49.754;20.158;2022-10-19T01:21:19;4.80;;;3.30;;
34064;SDS011;20339;49.754;20.158;2022-10-19T01:27:10;4.30;;;3.90;;
34064;SDS011;20339;49.754;20.158;2022-10-19T01:30:01;4.50;;;4.10;;
34064;SDS011;20339;49.754;20.158;2022-10-19T01:32:48;6.10;;;4.40;;
34064;SDS011;20339;49.754;20.158;2022-10-19T01:35:32;4.60;;;4.20;;
34064;SDS011;20339;49.754;20.158;2022-10-19T01:38:10;5.90;;;4.40;;
34064;SDS011;20339;49.754;20.158;2022-10-19T01:40:53;4.10;;;3.70;;
34064;SDS011;20339;49.754;20.158;2022-10-19T01:43:32;4.80;;;4.20;;
34064;SDS011;20339;49.754;20.158;2022-10-19T01:46:10;6.00;;;5.00;;
34064;SDS011;20339;49.754;20.158;2022-10-19T01:48:49;4.10;;;3.60;;
34064;SDS011;20339;49.754;20.158;2022-10-19T01:51:27;6.10;;;4.40;;
34064;SDS011;20339;49.754;20.158;2022-10-19T01:54:03;5.60;;;4.90;;
34064;SDS011;20339;49.754;20.158;2022-10-19T01:56:40;5.20;;;4.70;;
34064;SDS011;20339;49.754;20.158;2022-10-19T01:59:14;7.30;;;5.00;;
34064;SDS011;20339;49.754;20.158;2022-10-19T02:01:49;6.10;;;5.40;;
34064;SDS011;20339;49.754;20.158;2022-10-19T02:04:21;6.50;;;5.90;;
34064;SDS011;20339;49.754;20.158;2022-10-19T02:06:54;8.00;;;6.80;;
34064;SDS011;20339;49.754;20.158;2022-10-19T02:09:25;6.00;;;5.30;;
34064;SDS011;20339;49.754;20.158;2022-10-19T02:11:58;6.90;;;6.20;;
34064;SDS011;20339;49.754;20.158;2022-10-19T02:14:35;6.50;;;5.90;;
34064;SDS011;20339;49.754;20.158;2022-10-19T02:17:12;7.00;;;6.30;;
34064;SDS011;20339;49.754;20.158;2022-10-19T02:19:45;6.60;;;5.20;;
34064;SDS011;20339;49.754;20.158;2022-10-19T02:22:19;5.80;;;5.30;;
34064;SDS011;20339;49.754;20.158;2022-10-19T02:24:51;6.70;;;6.10;;
34064;SDS011;20339;49.754;20.158;2022-10-19T02:27:22;6.60;;;4.90;;
34064;SDS011;20339;49.754;20.158;2022-10-19T02:29:55;7.60;;;6.30;;
34064;SDS011;20339;49.754;20.158;2022-10-19T02:32:27;9.80;;;8.90;;
34064;SDS011;20339;49.754;20.158;2022-10-19T02:34:58;10.40;;;9.40;;
34064;SDS011;20339;49.754;20.158;2022-10-19T02:37:30;11.80;;;10.60;;
34064;SDS011;20339;49.754;20.158;2022-10-19T02:40:01;12.30;;;11.10;;
34064;SDS011;20339;49.754;20.158;2022-10-19T02:42:34;12.00;;;10.80;;
34064;SDS011;20339;49.754;20.158;2022-10-19T02:45:08;11.30;;;10.20;;
34064;SDS011;20339;49.754;20.158;2022-10-19T02:47:46;10.10;;;8.90;;
34064;SDS011;20339;49.754;20.158;2022-10-19T02:50:20;7.40;;;6.50;;
34064;SDS011;20339;49.754;20.158;2022-10-19T02:52:52;7.70;;;6.90;;
34064;SDS011;20339;49.754;20.158;2022-10-19T02:55:23;8.40;;;7.50;;
34064;SDS011;20339;49.754;20.158;2022-10-19T02:57:54;6.60;;;5.90;;
34064;SDS011;20339;49.754;20.158;2022-10-19T03:00:25;7.80;;;7.00;;
34064;SDS011;20339;49.754;20.158;2022-10-19T03:02:56;8.60;;;7.80;;
34064;SDS011;20339;49.754;20.158;2022-10-19T03:05:30;7.40;;;6.20;;
34064;SDS011;20339;49.754;20.158;2022-10-19T03:08:01;6.70;;;6.10;;
34064;SDS011;20339;49.754;20.158;2022-10-19T03:10:32;6.60;;;5.90;;
34064;SDS011;20339;49.754;20.158;2022-10-19T03:13:07;7.10;;;6.40;;
34064;SDS011;20339;49.754;20.158;2022-10-19T03:15:38;7.00;;;6.30;;
34064;SDS011;20339;49.754;20.158;2022-10-19T03:18:12;7.40;;;6.60;;
34064;SDS011;20339;49.754;20.158;2022-10-19T03:20:43;7.90;;;7.10;;
34064;SDS011;20339;49.754;20.158;2022-10-19T03:23:14;8.20;;;7.30;;
34064;SDS011;20339;49.754;20.158;2022-10-19T03:25:45;7.30;;;6.40;;
34064;SDS011;20339;49.754;20.158;2022-10-19T03:28:16;6.80;;;6.10;;
34064;SDS011;20339;49.754;20.158;2022-10-19T03:30:47;6.20;;;5.60;;
34064;SDS011;20339;49.754;20.158;2022-10-19T03:33:21;5.70;;;5.10;;
34064;SDS011;20339;49.754;20.158;2022-10-19T03:38:44;6.40;;;5.80;;
34064;SDS011;20339;49.754;20.158;2022-10-19T03:41:15;6.30;;;5.70;;
34064;SDS011;20339;49.754;20.158;2022-10-19T03:43:46;5.60;;;5.10;;
34064;SDS011;20339;49.754;20.158;2022-10-19T03:46:20;6.30;;;5.70;;
34064;SDS011;20339;49.754;20.158;2022-10-19T03:48:51;5.00;;;4.50;;
34064;SDS011;20339;49.754;20.158;2022-10-19T03:51:23;4.60;;;4.10;;
34064;SDS011;20339;49.754;20.158;2022-10-19T03:53:57;4.40;;;4.00;;
34064;SDS011;20339;49.754;20.158;2022-10-19T03:56:32;3.50;;;3.20;;
34064;SDS011;20339;49.754;20.158;2022-10-19T03:59:04;3.40;;;3.10;;
34064;SDS011;20339;49.754;20.158;2022-10-19T04:01:36;2.80;;;2.60;;
34064;SDS011;20339;49.754;20.158;2022-10-19T04:04:10;3.80;;;3.00;;
34064;SDS011;20339;49.754;20.158;2022-10-19T04:06:44;2.80;;;2.50;;
34064;SDS011;20339;49.754;20.158;2022-10-19T04:09:17;3.10;;;2.80;;
34064;SDS011;20339;49.754;20.158;2022-10-19T04:11:49;3.70;;;3.30;;
34064;SDS011;20339;49.754;20.158;2022-10-19T04:14:20;4.30;;;3.80;;
34064;SDS011;20339;49.754;20.158;2022-10-19T04:16:55;5.10;;;4.60;;
34064;SDS011;20339;49.754;20.158;2022-10-19T04:19:26;4.50;;;4.10;;
34064;SDS011;20339;49.754;20.158;2022-10-19T04:21:57;6.60;;;5.60;;
34064;SDS011;20339;49.754;20.158;2022-10-19T04:24:28;7.00;;;6.00;;
34064;SDS011;20339;49.754;20.158;2022-10-19T04:27:00;7.20;;;6.40;;
34064;SDS011;20339;49.754;20.158;2022-10-19T04:29:32;7.50;;;6.60;;
34064;SDS011;20339;49.754;20.158;2022-10-19T04:32:04;8.30;;;7.00;;
34064;SDS011;20339;49.754;20.158;2022-10-19T04:34:37;7.70;;;6.70;;
34064;SDS011;20339;49.754;20.158;2022-10-19T04:37:08;8.20;;;7.40;;
34064;SDS011;20339;49.754;20.158;2022-10-19T04:39:39;8.50;;;7.40;;
34064;SDS011;20339;49.754;20.158;2022-10-19T04:42:11;7.90;;;6.70;;
34064;SDS011;20339;49.754;20.158;2022-10-19T04:44:42;7.80;;;6.60;;
34064;SDS011;20339;49.754;20.158;2022-10-19T04:47:14;9.20;;;8.00;;
34064;SDS011;20339;49.754;20.158;2022-10-19T04:49:45;9.10;;;8.20;;
34064;SDS011;20339;49.754;20.158;2022-10-19T04:52:16;8.50;;;7.60;;
34064;SDS011;20339;49.754;20.158;2022-10-19T04:54:48;8.80;;;8.00;;
34064;SDS011;20339;49.754;20.158;2022-10-19T04:57:19;9.50;;;7.60;;
34064;SDS011;20339;49.754;20.158;2022-10-19T04:59:50;8.70;;;6.90;;
34064;SDS011;20339;49.754;20.158;2022-10-19T05:02:21;8.80;;;7.80;;
34064;SDS011;20339;49.754;20.158;2022-10-19T05:04:52;9.80;;;8.70;;
34064;SDS011;20339;49.754;20.158;2022-10-19T05:07:24;9.80;;;8.50;;
34064;SDS011;20339;49.754;20.158;2022-10-19T05:09:55;8.90;;;8.00;;
34064;SDS011;20339;49.754;20.158;2022-10-19T05:12:26;9.40;;;8.40;;
34064;SDS011;20339;49.754;20.158;2022-10-19T05:14:59;9.80;;;8.40;;
34064;SDS011;20339;49.754;20.158;2022-10-19T05:17:30;9.80;;;8.80;;
34064;SDS011;20339;49.754;20.158;2022-10-19T05:20:02;9.00;;;8.10;;
34064;SDS011;20339;49.754;20.158;2022-10-19T05:22:35;11.00;;;9.80;;
34064;SDS011;20339;49.754;20.158;2022-10-19T05:25:08;10.10;;;9.00;;
34064;SDS011;20339;49.754;20.158;2022-10-19T05:27:39;10.50;;;8.70;;
34064;SDS011;20339;49.754;20.158;2022-10-19T05:30:10;9.60;;;8.40;;
34064;SDS011;20339;49.754;20.158;2022-10-19T05:32:42;11.20;;;10.10;;
34064;SDS011;20339;49.754;20.158;2022-10-19T05:35:13;11.20;;;10.00;;
34064;SDS011;20339;49.754;20.158;2022-10-19T05:37:44;11.20;;;9.80;;
34064;SDS011;20339;49.754;20.158;2022-10-19T05:40:21;12.40;;;10.60;;
34064;SDS011;20339;49.754;20.158;2022-10-19T05:42:53;13.90;;;11.70;;
34064;SDS011;20339;49.754;20.158;2022-10-19T05:45:24;13.00;;;11.70;;
34064;SDS011;20339;49.754;20.158;2022-10-19T05:47:55;13.40;;;10.80;;
34064;SDS011;20339;49.754;20.158;2022-10-19T05:50:27;13.30;;;11.90;;
34064;SDS011;20339;49.754;20.158;2022-10-19T05:52:58;13.80;;;11.50;;
34064;SDS011;20339;49.754;20.158;2022-10-19T05:55:29;13.30;;;10.50;;
34064;SDS011;20339;49.754;20.158;2022-10-19T05:58:04;12.50;;;10.60;;
34064;SDS011;20339;49.754;20.158;2022-10-19T06:00:35;11.60;;;10.40;;
34064;SDS011;20339;49.754;20.158;2022-10-19T06:03:09;12.70;;;11.30;;
34064;SDS011;20339;49.754;20.158;2022-10-19T06:05:44;12.30;;;11.00;;
34064;SDS011;20339;49.754;20.158;2022-10-19T06:08:15;12.10;;;10.70;;
34064;SDS011;20339;49.754;20.158;2022-10-19T06:10:47;13.40;;;11.80;;
34064;SDS011;20339;49.754;20.158;2022-10-19T06:13:21;11.80;;;10.30;;
34064;SDS011;20339;49.754;20.158;2022-10-19T06:15:52;12.00;;;10.20;;
34064;SDS011;20339;49.754;20.158;2022-10-19T06:18:23;14.50;;;10.90;;
34064;SDS011;20339;49.754;20.158;2022-10-19T06:20:54;12.70;;;10.90;;
34064;SDS011;20339;49.754;20.158;2022-10-19T06:23:31;11.20;;;10.00;;
34064;SDS011;20339;49.754;20.158;2022-10-19T06:26:03;11.60;;;9.90;;
34064;SDS011;20339;49.754;20.158;2022-10-19T06:28:37;12.40;;;11.10;;
34064;SDS011;20339;49.754;20.158;2022-10-19T06:31:10;13.10;;;11.70;;
34064;SDS011;20339;49.754;20.158;2022-10-19T06:33:44;12.70;;;10.40;;
34064;SDS011;20339;49.754;20.158;2022-10-19T06:36:16;13.10;;;10.70;;
34064;SDS011;20339;49.754;20.158;2022-10-19T06:38:50;11.20;;;8.90;;
34064;SDS011;20339;49.754;20.158;2022-10-19T06:41:22;13.80;;;10.10;;
34064;SDS011;20339;49.754;20.158;2022-10-19T06:43:54;12.30;;;8.30;;
34064;SDS011;20339;49.754;20.158;2022-10-19T06:46:25;13.60;;;11.00;;
34064;SDS011;20339;49.754;20.158;2022-10-19T06:48:57;14.00;;;10.90;;
34064;SDS011;20339;49.754;20.158;2022-10-19T06:51:30;16.70;;;12.10;;
34064;SDS011;20339;49.754;20.158;2022-10-19T06:54:01;14.20;;;10.10;;
34064;SDS011;20339;49.754;20.158;2022-10-19T06:56:32;12.90;;;11.50;;
34064;SDS011;20339;49.754;20.158;2022-10-19T06:59:04;11.30;;;9.80;;
34064;SDS011;20339;49.754;20.158;2022-10-19T07:01:35;12.10;;;9.10;;
34064;SDS011;20339;49.754;20.158;2022-10-19T07:04:06;16.40;;;10.30;;
34064;SDS011;20339;49.754;20.158;2022-10-19T07:06:37;13.70;;;9.60;;
34064;SDS011;20339;49.754;20.158;2022-10-19T07:09:08;15.70;;;10.40;;
34064;SDS011;20339;49.754;20.158;2022-10-19T07:11:39;11.20;;;9.20;;
34064;SDS011;20339;49.754;20.158;2022-10-19T07:14:10;14.40;;;9.60;;
34064;SDS011;20339;49.754;20.158;2022-10-19T07:16:42;13.40;;;10.70;;
34064;SDS011;20339;49.754;20.158;2022-10-19T07:19:13;11.10;;;8.20;;
34064;SDS011;20339;49.754;20.158;2022-10-19T07:21:44;7.90;;;6.10;;
34064;SDS011;20339;49.754;20.158;2022-10-19T07:24:18;7.60;;;5.90;;
34064;SDS011;20339;49.754;20.158;2022-10-19T07:26:51;6.70;;;4.30;;
34064;SDS011;20339;49.754;20.158;2022-10-19T07:29:22;7.60;;;4.70;;
34064;SDS011;20339;49.754;20.158;2022-10-19T07:31:53;6.80;;;4.60;;
34064;SDS011;20339;49.754;20.158;2022-10-19T07:34:24;7.60;;;5.20;;
34064;SDS011;20339;49.754;20.158;2022-10-19T07:36:56;6.80;;;4.10;;
34064;SDS011;20339;49.754;20.158;2022-10-19T07:39:29;7.00;;;3.90;;
34064;SDS011;20339;49.754;20.158;2022-10-19T07:42:00;6.20;;;3.90;;
34064;SDS011;20339;49.754;20.158;2022-10-19T07:47:03;8.20;;;4.60;;
34064;SDS011;20339;49.754;20.158;2022-10-19T07:49:34;8.00;;;4.00;;
34064;SDS011;20339;49.754;20.158;2022-10-19T07:52:08;6.40;;;3.00;;
34064;SDS011;20339;49.754;20.158;2022-10-19T07:54:39;7.60;;;3.20;;
34064;SDS011;20339;49.754;20.158;2022-10-19T07:57:11;4.60;;;3.20;;
34064;SDS011;20339;49.754;20.158;2022-10-19T07:59:42;7.40;;;3.60;;
34064;SDS011;20339;49.754;20.158;2022-10-19T08:02:14;6.30;;;3.20;;
34064;SDS011;20339;49.754;20.158;2022-10-19T08:04:47;4.80;;;3.20;;
34064;SDS011;20339;49.754;20.158;2022-10-19T08:07:18;5.70;;;3.40;;
34064;SDS011;20339;49.754;20.158;2022-10-19T08:09:50;8.20;;;3.90;;
34064;SDS011;20339;49.754;20.158;2022-10-19T08:12:21;7.70;;;3.80;;
34064;SDS011;20339;49.754;20.158;2022-10-19T08:14:57;8.50;;;3.90;;
34064;SDS011;20339;49.754;20.158;2022-10-19T08:17:35;6.50;;;4.00;;
34064;SDS011;20339;49.754;20.158;2022-10-19T08:20:09;7.90;;;3.80;;
34064;SDS011;20339;49.754;20.158;2022-10-19T08:22:40;6.90;;;3.60;;
34064;SDS011;20339;49.754;20.158;2022-10-19T08:25:12;6.40;;;3.70;;
34064;SDS011;20339;49.754;20.158;2022-10-19T08:27:43;8.90;;;4.40;;
34064;SDS011;20339;49.754;20.158;2022-10-19T08:30:14;5.30;;;3.50;;
34064;SDS011;20339;49.754;20.158;2022-10-19T08:32:45;11.20;;;4.20;;
34064;SDS011;20339;49.754;20.158;2022-10-19T08:35:16;9.70;;;3.50;;
34064;SDS011;20339;49.754;20.158;2022-10-19T08:37:50;6.60;;;3.40;;
34064;SDS011;20339;49.754;20.158;2022-10-19T08:40:22;5.50;;;3.70;;
34064;SDS011;20339;49.754;20.158;2022-10-19T08:42:56;8.10;;;3.80;;
34064;SDS011;20339;49.754;20.158;2022-10-19T08:45:36;7.00;;;4.00;;
34064;SDS011;20339;49.754;20.158;2022-10-19T08:48:26;8.00;;;3.80;;
34064;SDS011;20339;49.754;20.158;2022-10-19T08:51:02;8.10;;;4.50;;
34064;SDS011;20339;49.754;20.158;2022-10-19T08:53:39;6.80;;;3.70;;
34064;SDS011;20339;49.754;20.158;2022-10-19T08:56:19;9.30;;;4.90;;
34064;SDS011;20339;49.754;20.158;2022-10-19T08:58:59;8.00;;;4.40;;
34064;SDS011;20339;49.754;20.158;2022-10-19T09:01:42;7.70;;;4.20;;
34064;SDS011;20339;49.754;20.158;2022-10-19T09:04:20;7.70;;;4.60;;
34064;SDS011;20339;49.754;20.158;2022-10-19T09:09:56;10.30;;;4.70;;
34064;SDS011;20339;49.754;20.158;2022-10-19T09:12:36;6.80;;;5.10;;
34064;SDS011;20339;49.754;20.158;2022-10-19T09:15:14;7.60;;;4.80;;
34064;SDS011;20339;49.754;20.158;2022-10-19T09:17:56;7.90;;;4.40;;
34064;SDS011;20339;49.754;20.158;2022-10-19T09:20:28;10.60;;;5.40;;
34064;SDS011;20339;49.754;20.158;2022-10-19T09:23:08;8.20;;;5.30;;
34064;SDS011;20339;49.754;20.158;2022-10-19T09:25:48;9.70;;;5.00;;
34064;SDS011;20339;49.754;20.158;2022-10-19T09:28:25;7.90;;;5.00;;
34064;SDS011;20339;49.754;20.158;2022-10-19T09:31:11;9.20;;;5.80;;
34064;SDS011;20339;49.754;20.158;2022-10-19T09:36:22;8.50;;;4.90;;
34064;SDS011;20339;49.754;20.158;2022-10-19T09:39:04;8.10;;;4.50;;
34064;SDS011;20339;49.754;20.158;2022-10-19T09:41:37;5.50;;;2.80;;
34064;SDS011;20339;49.754;20.158;2022-10-19T09:44:15;8.40;;;4.50;;
34064;SDS011;20339;49.754;20.158;2022-10-19T09:46:48;9.80;;;6.30;;
34064;SDS011;20339;49.754;20.158;2022-10-19T09:49:38;8.90;;;6.20;;
34064;SDS011;20339;49.754;20.158;2022-10-19T09:52:26;9.20;;;6.00;;
34064;SDS011;20339;49.754;20.158;2022-10-19T09:55:03;9.30;;;5.60;;
34064;SDS011;20339;49.754;20.158;2022-10-19T09:57:46;8.40;;;5.80;;
34064;SDS011;20339;49.754;20.158;2022-10-19T10:00:19;8.30;;;5.00;;
34064;SDS011;20339;49.754;20.158;2022-10-19T10:02:52;9.90;;;5.30;;
34064;SDS011;20339;49.754;20.158;2022-10-19T10:05:28;9.50;;;5.50;;
34064;SDS011;20339;49.754;20.158;2022-10-19T10:08:01;8.30;;;5.70;;
34064;SDS011;20339;49.754;20.158;2022-10-19T10:10:43;8.90;;;6.00;;
34064;SDS011;20339;49.754;20.158;2022-10-19T10:13:22;9.00;;;5.40;;
34064;SDS011;20339;49.754;20.158;2022-10-19T10:15:58;10.40;;;4.20;;
34064;SDS011;20339;49.754;20.158;2022-10-19T10:18:34;8.80;;;5.30;;
34064;SDS011;20339;49.754;20.158;2022-10-19T10:21:18;8.60;;;5.90;;
34064;SDS011;20339;49.754;20.158;2022-10-19T10:24:02;17.40;;;7.40;;
34064;SDS011;20339;49.754;20.158;2022-10-19T10:26:38;11.50;;;6.70;;
34064;SDS011;20339;49.754;20.158;2022-10-19T10:29:18;9.60;;;7.10;;
34064;SDS011;20339;49.754;20.158;2022-10-19T10:31:51;10.90;;;6.70;;
34064;SDS011;20339;49.754;20.158;2022-10-19T10:34:34;8.80;;;6.60;;
34064;SDS011;20339;49.754;20.158;2022-10-19T10:37:12;9.10;;;4.90;;
34064;SDS011;20339;49.754;20.158;2022-10-19T10:39:50;8.40;;;6.30;;
34064;SDS011;20339;49.754;20.158;2022-10-19T10:42:26;8.50;;;5.90;;
34064;SDS011;20339;49.754;20.158;2022-10-19T10:45:02;11.60;;;5.80;;
34064;SDS011;20339;49.754;20.158;2022-10-19T10:47:43;7.10;;;3.90;;
34064;SDS011;20339;49.754;20.158;2022-10-19T10:50:18;7.70;;;5.10;;
34064;SDS011;20339;49.754;20.158;2022-10-19T10:52:57;6.60;;;5.40;;
34064;SDS011;20339;49.754;20.158;2022-10-19T10:55:30;8.00;;;3.80;;
34064;SDS011;20339;49.754;20.158;2022-10-19T10:58:05;9.80;;;3.70;;
34064;SDS011;20339;49.754;20.158;2022-10-19T11:00:43;7.20;;;4.10;;
34064;SDS011;20339;49.754;20.158;2022-10-19T11:03:18;6.60;;;4.40;;
34064;SDS011;20339;49.754;20.158;2022-10-19T11:05:53;9.00;;;4.50;;
34064;SDS011;20339;49.754;20.158;2022-10-19T11:08:27;8.40;;;4.20;;
34064;SDS011;20339;49.754;20.158;2022-10-19T11:11:03;8.20;;;4.70;;
34064;SDS011;20339;49.754;20.158;2022-10-19T11:13:43;11.70;;;5.00;;
34064;SDS011;20339;49.754;20.158;2022-10-19T11:16:18;8.00;;;3.90;;
34064;SDS011;20339;49.754;20.158;2022-10-19T11:18:53;4.70;;;2.60;;
34064;SDS011;20339;49.754;20.158;2022-10-19T11:21:30;5.90;;;2.40;;
34064;SDS011;20339;49.754;20.158;2022-10-19T11:24:07;7.10;;;2.60;;
34064;SDS011;20339;49.754;20.158;2022-10-19T11:26:52;5.00;;;1.90;;
34064;SDS011;20339;49.754;20.158;2022-10-19T11:29:39;4.70;;;1.80;;
34064;SDS011;20339;49.754;20.158;2022-10-19T11:32:22;8.30;;;2.30;;
34064;SDS011;20339;49.754;20.158;2022-10-19T11:35:05;2.40;;;1.90;;
34064;SDS011;20339;49.754;20.158;2022-10-19T11:37:55;5.40;;;2.60;;
34064;SDS011;20339;49.754;20.158;2022-10-19T11:40:37;5.30;;;2.20;;
34064;SDS011;20339;49.754;20.158;2022-10-19T11:43:14;5.60;;;2.30;;
34064;SDS011;20339;49.754;20.158;2022-10-19T11:45:58;6.10;;;2.30;;
34064;SDS011;20339;49.754;20.158;2022-10-19T11:48:42;5.70;;;1.40;;
34064;SDS011;20339;49.754;20.158;2022-10-19T11:51:20;4.60;;;1.90;;
34064;SDS011;20339;49.754;20.158;2022-10-19T11:54:06;4.90;;;2.50;;
34064;SDS011;20339;49.754;20.158;2022-10-19T11:56:56;4.10;;;2.10;;
34064;SDS011;20339;49.754;20.158;2022-10-19T11:59:33;6.50;;;1.50;;
34064;SDS011;20339;49.754;20.158;2022-10-19T12:02:21;4.70;;;1.70;;
34064;SDS011;20339;49.754;20.158;2022-10-19T12:05:11;5.00;;;2.00;;
34064;SDS011;20339;49.754;20.158;2022-10-19T12:07:54;3.50;;;1.40;;
34064;SDS011;20339;49.754;20.158;2022-10-19T12:10:36;6.00;;;1.90;;
34064;SDS011;20339;49.754;20.158;2022-10-19T12:13:16;4.80;;;2.10;;
34064;SDS011;20339;49.754;20.158;2022-10-19T12:15:54;9.70;;;2.10;;
34064;SDS011;20339;49.754;20.158;2022-10-19T12:18:29;9.80;;;2.20;;
34064;SDS011;20339;49.754;20.158;2022-10-19T12:21:07;4.20;;;2.00;;
34064;SDS011;20339;49.754;20.158;2022-10-19T12:23:42;4.40;;;2.30;;
34064;SDS011;20339;49.754;20.158;2022-10-19T12:26:15;6.10;;;1.90;;
34064;SDS011;20339;49.754;20.158;2022-10-19T12:28:52;4.30;;;1.90;;
34064;SDS011;20339;49.754;20.158;2022-10-19T12:31:27;3.90;;;2.00;;
34064;SDS011;20339;49.754;20.158;2022-10-19T12:34:00;6.90;;;2.40;;
34064;SDS011;20339;49.754;20.158;2022-10-19T12:36:38;5.80;;;2.00;;
34064;SDS011;20339;49.754;20.158;2022-10-19T12:39:21;4.30;;;1.90;;
34064;SDS011;20339;49.754;20.158;2022-10-19T12:42:01;4.20;;;1.50;;
34064;SDS011;20339;49.754;20.158;2022-10-19T12:44:44;4.80;;;1.60;;
34064;SDS011;20339;49.754;20.158;2022-10-19T12:47:36;7.40;;;1.90;;
34064;SDS011;20339;49.754;20.158;2022-10-19T12:50:07;3.90;;;1.30;;
34064;SDS011;20339;49.754;20.158;2022-10-19T12:52:40;4.60;;;2.00;;
34064;SDS011;20339;49.754;20.158;2022-10-19T12:55:26;5.10;;;1.70;;
34064;SDS011;20339;49.754;20.158;2022-10-19T12:58:03;4.20;;;1.70;;
34064;SDS011;20339;49.754;20.158;2022-10-19T13:00:57;4.20;;;1.60;;
34064;SDS011;20339;49.754;20.158;2022-10-19T13:03:32;4.70;;;1.40;;
34064;SDS011;20339;49.754;20.158;2022-10-19T13:06:08;4.70;;;1.60;;
34064;SDS011;20339;49.754;20.158;2022-10-19T13:08:42;2.80;;;1.50;;
34064;SDS011;20339;49.754;20.158;2022-10-19T13:11:16;2.00;;;1.10;;
34064;SDS011;20339;49.754;20.158;2022-10-19T13:13:56;5.30;;;1.80;;
34064;SDS011;20339;49.754;20.158;2022-10-19T13:19:31;3.70;;;1.60;;
34064;SDS011;20339;49.754;20.158;2022-10-19T13:27:56;6.10;;;1.80;;
34064;SDS011;20339;49.754;20.158;2022-10-19T13:31:14;2.80;;;1.50;;
34064;SDS011;20339;49.754;20.158;2022-10-19T13:33:55;4.00;;;1.20;;
34064;SDS011;20339;49.754;20.158;2022-10-19T13:36:27;3.50;;;1.50;;
34064;SDS011;20339;49.754;20.158;2022-10-19T13:41:53;3.40;;;1.30;;
34064;SDS011;20339;49.754;20.158;2022-10-19T13:44:27;4.30;;;1.70;;
34064;SDS011;20339;49.754;20.158;2022-10-19T13:47:14;3.90;;;2.10;;
34064;SDS011;20339;49.754;20.158;2022-10-19T13:53:22;4.80;;;1.80;;
34064;SDS011;20339;49.754;20.158;2022-10-19T13:59:20;5.70;;;2.20;;
34064;SDS011;20339;49.754;20.158;2022-10-19T14:08:02;5.50;;;2.10;;
34064;SDS011;20339;49.754;20.158;2022-10-19T14:10:46;4.90;;;2.70;;
34064;SDS011;20339;49.754;20.158;2022-10-19T14:15:56;3.00;;;1.70;;
34064;SDS011;20339;49.754;20.158;2022-10-19T14:18:30;7.00;;;2.20;;
34064;SDS011;20339;49.754;20.158;2022-10-19T14:21:04;5.60;;;1.90;;
34064;SDS011;20339;49.754;20.158;2022-10-19T14:23:37;8.80;;;3.80;;
34064;SDS011;20339;49.754;20.158;2022-10-19T14:26:11;3.90;;;1.90;;
34064;SDS011;20339;49.754;20.158;2022-10-19T14:28:48;3.50;;;2.00;;
34064;SDS011;20339;49.754;20.158;2022-10-19T14:31:24;6.30;;;1.80;;
34064;SDS011;20339;49.754;20.158;2022-10-19T14:34:03;4.10;;;2.00;;
34064;SDS011;20339;49.754;20.158;2022-10-19T14:36:37;5.50;;;2.40;;
34064;SDS011;20339;49.754;20.158;2022-10-19T14:39:21;4.70;;;1.80;;
34064;SDS011;20339;49.754;20.158;2022-10-19T14:41:55;4.90;;;2.40;;
34064;SDS011;20339;49.754;20.158;2022-10-19T14:44:35;5.10;;;2.70;;
34064;SDS011;20339;49.754;20.158;2022-10-19T14:47:16;5.10;;;2.50;;
34064;SDS011;20339;49.754;20.158;2022-10-19T14:49:49;7.20;;;2.50;;
34064;SDS011;20339;49.754;20.158;2022-10-19T14:52:21;4.50;;;2.20;;
34064;SDS011;20339;49.754;20.158;2022-10-19T14:54:58;4.30;;;2.10;;
34064;SDS011;20339;49.754;20.158;2022-10-19T14:57:35;5.90;;;2.60;;
34064;SDS011;20339;49.754;20.158;2022-10-19T15:00:14;9.70;;;3.90;;
34064;SDS011;20339;49.754;20.158;2022-10-19T15:02:50;6.30;;;3.10;;
34064;SDS011;20339;49.754;20.158;2022-10-19T15:05:28;6.60;;;2.90;;
34064;SDS011;20339;49.754;20.158;2022-10-19T15:08:06;7.30;;;2.60;;
34064;SDS011;20339;49.754;20.158;2022-10-19T15:10:40;7.30;;;2.80;;
34064;SDS011;20339;49.754;20.158;2022-10-19T15:13:15;5.30;;;2.50;;
34064;SDS011;20339;49.754;20.158;2022-10-19T15:15:56;4.90;;;2.30;;
34064;SDS011;20339;49.754;20.158;2022-10-19T15:18:32;5.30;;;2.40;;
34064;SDS011;20339;49.754;20.158;2022-10-19T15:21:11;6.90;;;3.20;;
34064;SDS011;20339;49.754;20.158;2022-10-19T15:23:46;7.40;;;3.30;;
34064;SDS011;20339;49.754;20.158;2022-10-19T15:26:20;6.90;;;3.60;;
34064;SDS011;20339;49.754;20.158;2022-10-19T15:29:05;10.00;;;4.40;;
34064;SDS011;20339;49.754;20.158;2022-10-19T15:31:40;5.50;;;3.30;;
34064;SDS011;20339;49.754;20.158;2022-10-19T15:34:19;8.40;;;3.50;;
34064;SDS011;20339;49.754;20.158;2022-10-19T15:36:54;7.00;;;3.80;;
34064;SDS011;20339;49.754;20.158;2022-10-19T15:39:28;5.00;;;2.90;;
34064;SDS011;20339;49.754;20.158;2022-10-19T15:45:25;7.80;;;3.80;;
34064;SDS011;20339;49.754;20.158;2022-10-19T15:48:23;11.00;;;3.50;;
34064;SDS011;20339;49.754;20.158;2022-10-19T15:50:56;5.00;;;3.10;;
34064;SDS011;20339;49.754;20.158;2022-10-19T15:53:30;9.40;;;3.80;;
34064;SDS011;20339;49.754;20.158;2022-10-19T15:56:01;8.70;;;4.10;;
34064;SDS011;20339;49.754;20.158;2022-10-19T15:58:33;8.20;;;3.20;;
34064;SDS011;20339;49.754;20.158;2022-10-19T16:01:04;7.00;;;3.60;;
34064;SDS011;20339;49.754;20.158;2022-10-19T16:03:43;8.50;;;3.60;;